sensor_id;sensor_type;location;lat;lon;timestamp;P1;durP1;ratioP1;P2;durP2;ratioP2
9852;SDS011;4965;43.238;27.864;2022-10-16T00:01:41;14.30;;;8.35;;
9852;SDS011;4965;43.238;27.864;2022-10-16T00:04:08;14.35;;;7.22;;
9852;SDS011;4965;43.238;27.864;2022-10-16T00:06:35;11.88;;;7.80;;
9852;SDS011;4965;43.238;27.864;2022-10-16T00:09:02;11.88;;;8.18;;
9852;SDS011;4965;43.238;27.864;2022-10-16T00:11:31;15.15;;;7.20;;
9852;SDS011;4965;43.238;27.864;2022-10-16T00:14:02;17.08;;;7.15;;
9852;SDS011;4965;43.238;27.864;2022-10-16T00:16:30;8.98;;;7.20;;
9852;SDS011;4965;43.238;27.864;2022-10-16T00:18:57;12.60;;;7.22;;
9852;SDS011;4965;43.238;27.864;2022-10-16T00:21:25;10.38;;;7.70;;
9852;SDS011;4965;43.238;27.864;2022-10-16T00:23:55;10.75;;;7.00;;
9852;SDS011;4965;43.238;27.864;2022-10-16T00:26:24;10.20;;;7.38;;
9852;SDS011;4965;43.238;27.864;2022-10-16T00:28:54;12.80;;;7.30;;
9852;SDS011;4965;43.238;27.864;2022-10-16T00:31:21;10.05;;;7.88;;
9852;SDS011;4965;43.238;27.864;2022-10-16T00:33:49;10.07;;;7.28;;
9852;SDS011;4965;43.238;27.864;2022-10-16T00:36:17;9.40;;;7.50;;
9852;SDS011;4965;43.238;27.864;2022-10-16T00:38:45;10.98;;;6.90;;
9852;SDS011;4965;43.238;27.864;2022-10-16T00:41:14;11.98;;;8.23;;
9852;SDS011;4965;43.238;27.864;2022-10-16T00:43:42;9.13;;;7.45;;
9852;SDS011;4965;43.238;27.864;2022-10-16T00:46:15;13.38;;;7.53;;
9852;SDS011;4965;43.238;27.864;2022-10-16T00:48:45;16.00;;;7.78;;
9852;SDS011;4965;43.238;27.864;2022-10-16T00:51:15;11.20;;;6.90;;
9852;SDS011;4965;43.238;27.864;2022-10-16T00:53:44;9.40;;;6.50;;
9852;SDS011;4965;43.238;27.864;2022-10-16T00:56:11;11.75;;;6.40;;
9852;SDS011;4965;43.238;27.864;2022-10-16T00:58:38;12.48;;;7.43;;
9852;SDS011;4965;43.238;27.864;2022-10-16T01:01:06;8.52;;;6.80;;
9852;SDS011;4965;43.238;27.864;2022-10-16T01:03:35;7.63;;;6.70;;
9852;SDS011;4965;43.238;27.864;2022-10-16T01:06:09;9.70;;;7.10;;
9852;SDS011;4965;43.238;27.864;2022-10-16T01:08:47;9.80;;;6.43;;
9852;SDS011;4965;43.238;27.864;2022-10-16T01:11:25;10.27;;;6.88;;
9852;SDS011;4965;43.238;27.864;2022-10-16T01:14:00;6.90;;;5.90;;
9852;SDS011;4965;43.238;27.864;2022-10-16T01:16:34;9.63;;;6.25;;
9852;SDS011;4965;43.238;27.864;2022-10-16T01:19:08;10.18;;;5.82;;
9852;SDS011;4965;43.238;27.864;2022-10-16T01:21:39;10.38;;;6.40;;
9852;SDS011;4965;43.238;27.864;2022-10-16T01:24:11;8.20;;;5.82;;
9852;SDS011;4965;43.238;27.864;2022-10-16T01:29:30;11.40;;;5.72;;
9852;SDS011;4965;43.238;27.864;2022-10-16T01:32:02;7.25;;;5.50;;
9852;SDS011;4965;43.238;27.864;2022-10-16T01:34:37;9.23;;;5.53;;
9852;SDS011;4965;43.238;27.864;2022-10-16T01:37:09;9.75;;;6.25;;
9852;SDS011;4965;43.238;27.864;2022-10-16T01:39:41;9.45;;;6.57;;
9852;SDS011;4965;43.238;27.864;2022-10-16T01:42:15;10.55;;;5.93;;
9852;SDS011;4965;43.238;27.864;2022-10-16T01:44:45;11.90;;;5.55;;
9852;SDS011;4965;43.238;27.864;2022-10-16T01:47:13;7.50;;;5.57;;
9852;SDS011;4965;43.238;27.864;2022-10-16T01:49:42;7.93;;;5.47;;
9852;SDS011;4965;43.238;27.864;2022-10-16T01:52:12;6.97;;;5.47;;
9852;SDS011;4965;43.238;27.864;2022-10-16T01:54:43;7.50;;;5.28;;
9852;SDS011;4965;43.238;27.864;2022-10-16T01:57:15;7.43;;;5.38;;
9852;SDS011;4965;43.238;27.864;2022-10-16T01:59:45;7.55;;;5.10;;
9852;SDS011;4965;43.238;27.864;2022-10-16T02:02:15;9.45;;;4.93;;
9852;SDS011;4965;43.238;27.864;2022-10-16T02:04:45;8.05;;;5.22;;
9852;SDS011;4965;43.238;27.864;2022-10-16T02:07:15;6.00;;;5.40;;
9852;SDS011;4965;43.238;27.864;2022-10-16T02:09:43;6.25;;;5.15;;
9852;SDS011;4965;43.238;27.864;2022-10-16T02:12:12;11.82;;;5.50;;
9852;SDS011;4965;43.238;27.864;2022-10-16T02:14:42;11.52;;;4.93;;
9852;SDS011;4965;43.238;27.864;2022-10-16T02:17:11;8.27;;;4.90;;
9852;SDS011;4965;43.238;27.864;2022-10-16T02:19:39;6.07;;;4.68;;
9852;SDS011;4965;43.238;27.864;2022-10-16T02:22:10;5.53;;;4.53;;
9852;SDS011;4965;43.238;27.864;2022-10-16T02:24:43;6.82;;;4.38;;
9852;SDS011;4965;43.238;27.864;2022-10-16T02:27:19;8.55;;;4.47;;
9852;SDS011;4965;43.238;27.864;2022-10-16T02:29:55;6.03;;;4.53;;
9852;SDS011;4965;43.238;27.864;2022-10-16T02:32:28;12.35;;;5.60;;
9852;SDS011;4965;43.238;27.864;2022-10-16T02:34:58;6.63;;;4.30;;
9852;SDS011;4965;43.238;27.864;2022-10-16T02:37:27;10.88;;;4.57;;
9852;SDS011;4965;43.238;27.864;2022-10-16T02:39:55;5.25;;;4.35;;
9852;SDS011;4965;43.238;27.864;2022-10-16T02:42:28;7.18;;;4.72;;
9852;SDS011;4965;43.238;27.864;2022-10-16T02:44:59;5.05;;;4.55;;
9852;SDS011;4965;43.238;27.864;2022-10-16T02:47:26;6.38;;;4.32;;
9852;SDS011;4965;43.238;27.864;2022-10-16T02:49:52;24.33;;;5.32;;
9852;SDS011;4965;43.238;27.864;2022-10-16T02:52:19;9.52;;;4.55;;
9852;SDS011;4965;43.238;27.864;2022-10-16T02:54:46;9.82;;;4.63;;
9852;SDS011;4965;43.238;27.864;2022-10-16T02:57:13;9.80;;;4.90;;
9852;SDS011;4965;43.238;27.864;2022-10-16T02:59:42;8.60;;;5.15;;
9852;SDS011;4965;43.238;27.864;2022-10-16T03:02:08;5.95;;;5.05;;
9852;SDS011;4965;43.238;27.864;2022-10-16T03:04:36;6.88;;;4.65;;
9852;SDS011;4965;43.238;27.864;2022-10-16T03:07:03;10.43;;;4.55;;
9852;SDS011;4965;43.238;27.864;2022-10-16T03:09:30;7.43;;;5.32;;
9852;SDS011;4965;43.238;27.864;2022-10-16T03:11:57;7.22;;;4.43;;
9852;SDS011;4965;43.238;27.864;2022-10-16T03:14:24;9.77;;;4.43;;
9852;SDS011;4965;43.238;27.864;2022-10-16T03:16:53;5.97;;;4.60;;
9852;SDS011;4965;43.238;27.864;2022-10-16T03:19:20;10.27;;;4.85;;
9852;SDS011;4965;43.238;27.864;2022-10-16T03:21:47;11.77;;;4.38;;
9852;SDS011;4965;43.238;27.864;2022-10-16T03:24:14;7.65;;;4.40;;
9852;SDS011;4965;43.238;27.864;2022-10-16T03:26:41;10.07;;;5.35;;
9852;SDS011;4965;43.238;27.864;2022-10-16T03:29:11;15.40;;;5.75;;
9852;SDS011;4965;43.238;27.864;2022-10-16T03:31:38;5.85;;;4.47;;
9852;SDS011;4965;43.238;27.864;2022-10-16T03:34:06;7.28;;;4.80;;
9852;SDS011;4965;43.238;27.864;2022-10-16T03:36:33;24.50;;;5.28;;
9852;SDS011;4965;43.238;27.864;2022-10-16T03:39:01;6.03;;;4.72;;
9852;SDS011;4965;43.238;27.864;2022-10-16T03:41:28;5.15;;;4.65;;
9852;SDS011;4965;43.238;27.864;2022-10-16T03:43:55;6.45;;;4.80;;
9852;SDS011;4965;43.238;27.864;2022-10-16T03:46:22;7.38;;;4.60;;
9852;SDS011;4965;43.238;27.864;2022-10-16T03:48:49;6.40;;;4.60;;
9852;SDS011;4965;43.238;27.864;2022-10-16T03:51:17;9.90;;;4.78;;
9852;SDS011;4965;43.238;27.864;2022-10-16T03:53:44;6.43;;;4.45;;
9852;SDS011;4965;43.238;27.864;2022-10-16T03:56:11;7.88;;;5.00;;
9852;SDS011;4965;43.238;27.864;2022-10-16T03:58:38;11.40;;;5.25;;
9852;SDS011;4965;43.238;27.864;2022-10-16T04:01:06;8.82;;;4.88;;
9852;SDS011;4965;43.238;27.864;2022-10-16T04:03:34;7.43;;;4.97;;
9852;SDS011;4965;43.238;27.864;2022-10-16T04:06:01;6.75;;;5.00;;
9852;SDS011;4965;43.238;27.864;2022-10-16T04:08:29;12.23;;;5.38;;
9852;SDS011;4965;43.238;27.864;2022-10-16T04:10:59;7.20;;;5.10;;
9852;SDS011;4965;43.238;27.864;2022-10-16T04:13:26;8.27;;;4.93;;
9852;SDS011;4965;43.238;27.864;2022-10-16T04:15:53;8.77;;;4.72;;
9852;SDS011;4965;43.238;27.864;2022-10-16T04:18:19;10.25;;;5.55;;
9852;SDS011;4965;43.238;27.864;2022-10-16T04:20:52;9.32;;;5.10;;
9852;SDS011;4965;43.238;27.864;2022-10-16T04:23:20;8.90;;;5.97;;
9852;SDS011;4965;43.238;27.864;2022-10-16T04:25:50;7.05;;;5.22;;
9852;SDS011;4965;43.238;27.864;2022-10-16T04:28:17;10.98;;;5.03;;
9852;SDS011;4965;43.238;27.864;2022-10-16T04:30:44;8.90;;;5.30;;
9852;SDS011;4965;43.238;27.864;2022-10-16T04:33:11;7.00;;;5.53;;
9852;SDS011;4965;43.238;27.864;2022-10-16T04:35:39;7.25;;;5.55;;
9852;SDS011;4965;43.238;27.864;2022-10-16T04:38:06;10.77;;;5.60;;
9852;SDS011;4965;43.238;27.864;2022-10-16T04:40:33;8.88;;;5.85;;
9852;SDS011;4965;43.238;27.864;2022-10-16T04:43:02;10.45;;;5.95;;
9852;SDS011;4965;43.238;27.864;2022-10-16T04:45:30;12.35;;;5.72;;
9852;SDS011;4965;43.238;27.864;2022-10-16T04:47:57;24.02;;;6.57;;
9852;SDS011;4965;43.238;27.864;2022-10-16T04:50:24;9.07;;;5.70;;
9852;SDS011;4965;43.238;27.864;2022-10-16T04:52:51;9.13;;;5.57;;
9852;SDS011;4965;43.238;27.864;2022-10-16T04:55:18;9.40;;;6.05;;
9852;SDS011;4965;43.238;27.864;2022-10-16T04:57:45;6.93;;;5.63;;
9852;SDS011;4965;43.238;27.864;2022-10-16T05:00:13;10.70;;;5.35;;
9852;SDS011;4965;43.238;27.864;2022-10-16T05:02:40;8.35;;;5.47;;
9852;SDS011;4965;43.238;27.864;2022-10-16T05:05:07;9.85;;;6.68;;
9852;SDS011;4965;43.238;27.864;2022-10-16T05:07:34;8.73;;;5.90;;
9852;SDS011;4965;43.238;27.864;2022-10-16T05:10:02;7.15;;;5.63;;
9852;SDS011;4965;43.238;27.864;2022-10-16T05:12:29;10.23;;;5.65;;
9852;SDS011;4965;43.238;27.864;2022-10-16T05:14:56;6.82;;;5.38;;
9852;SDS011;4965;43.238;27.864;2022-10-16T05:17:25;8.07;;;4.82;;
9852;SDS011;4965;43.238;27.864;2022-10-16T05:19:52;9.70;;;5.00;;
9852;SDS011;4965;43.238;27.864;2022-10-16T05:22:19;7.00;;;4.30;;
9852;SDS011;4965;43.238;27.864;2022-10-16T05:24:46;7.95;;;4.95;;
9852;SDS011;4965;43.238;27.864;2022-10-16T05:27:13;8.45;;;4.97;;
9852;SDS011;4965;43.238;27.864;2022-10-16T05:29:44;8.68;;;5.07;;
9852;SDS011;4965;43.238;27.864;2022-10-16T05:32:12;8.00;;;5.18;;
9852;SDS011;4965;43.238;27.864;2022-10-16T05:34:40;7.82;;;4.18;;
9852;SDS011;4965;43.238;27.864;2022-10-16T05:37:07;10.25;;;4.57;;
9852;SDS011;4965;43.238;27.864;2022-10-16T05:39:34;8.77;;;4.63;;
9852;SDS011;4965;43.238;27.864;2022-10-16T05:42:02;6.35;;;3.97;;
9852;SDS011;4965;43.238;27.864;2022-10-16T05:44:29;5.50;;;3.85;;
9852;SDS011;4965;43.238;27.864;2022-10-16T05:46:56;11.50;;;4.40;;
9852;SDS011;4965;43.238;27.864;2022-10-16T05:49:23;10.77;;;4.80;;
9852;SDS011;4965;43.238;27.864;2022-10-16T05:51:51;6.35;;;4.55;;
9852;SDS011;4965;43.238;27.864;2022-10-16T05:54:18;5.30;;;4.28;;
9852;SDS011;4965;43.238;27.864;2022-10-16T05:56:45;16.52;;;5.00;;
9852;SDS011;4965;43.238;27.864;2022-10-16T05:59:12;6.68;;;4.47;;
9852;SDS011;4965;43.238;27.864;2022-10-16T06:01:39;6.45;;;4.20;;
9852;SDS011;4965;43.238;27.864;2022-10-16T06:04:06;6.60;;;4.70;;
9852;SDS011;4965;43.238;27.864;2022-10-16T06:06:32;7.82;;;5.20;;
9852;SDS011;4965;43.238;27.864;2022-10-16T06:09:03;8.30;;;4.95;;
9852;SDS011;4965;43.238;27.864;2022-10-16T06:11:31;17.13;;;5.30;;
9852;SDS011;4965;43.238;27.864;2022-10-16T06:14:00;6.35;;;4.93;;
9852;SDS011;4965;43.238;27.864;2022-10-16T06:16:31;7.63;;;5.47;;
9852;SDS011;4965;43.238;27.864;2022-10-16T06:18:59;9.73;;;4.93;;
9852;SDS011;4965;43.238;27.864;2022-10-16T06:21:27;8.77;;;4.68;;
9852;SDS011;4965;43.238;27.864;2022-10-16T06:23:55;12.20;;;5.32;;
9852;SDS011;4965;43.238;27.864;2022-10-16T06:26:25;5.43;;;4.63;;
9852;SDS011;4965;43.238;27.864;2022-10-16T06:28:54;6.70;;;4.55;;
9852;SDS011;4965;43.238;27.864;2022-10-16T06:31:21;6.20;;;4.38;;
9852;SDS011;4965;43.238;27.864;2022-10-16T06:33:52;10.13;;;4.13;;
9852;SDS011;4965;43.238;27.864;2022-10-16T06:36:21;8.73;;;3.55;;
9852;SDS011;4965;43.238;27.864;2022-10-16T06:38:48;11.75;;;3.75;;
9852;SDS011;4965;43.238;27.864;2022-10-16T06:41:16;13.82;;;3.45;;
9852;SDS011;4965;43.238;27.864;2022-10-16T06:43:46;2.97;;;2.65;;
9852;SDS011;4965;43.238;27.864;2022-10-16T06:46:14;6.47;;;2.92;;
9852;SDS011;4965;43.238;27.864;2022-10-16T06:48:43;10.52;;;2.53;;
9852;SDS011;4965;43.238;27.864;2022-10-16T06:51:10;7.60;;;2.83;;
9852;SDS011;4965;43.238;27.864;2022-10-16T06:53:40;11.35;;;2.88;;
9852;SDS011;4965;43.238;27.864;2022-10-16T06:56:08;9.63;;;2.85;;
9852;SDS011;4965;43.238;27.864;2022-10-16T06:58:36;6.22;;;3.15;;
9852;SDS011;4965;43.238;27.864;2022-10-16T07:01:06;6.55;;;2.78;;
9852;SDS011;4965;43.238;27.864;2022-10-16T07:03:35;7.28;;;3.10;;
9852;SDS011;4965;43.238;27.864;2022-10-16T07:06:02;5.85;;;2.88;;
9852;SDS011;4965;43.238;27.864;2022-10-16T07:08:30;8.25;;;2.70;;
9852;SDS011;4965;43.238;27.864;2022-10-16T07:10:59;6.57;;;3.25;;
9852;SDS011;4965;43.238;27.864;2022-10-16T07:13:26;7.55;;;2.67;;
9852;SDS011;4965;43.238;27.864;2022-10-16T07:15:53;5.43;;;2.85;;
9852;SDS011;4965;43.238;27.864;2022-10-16T07:18:22;5.45;;;2.70;;
9852;SDS011;4965;43.238;27.864;2022-10-16T07:20:52;7.70;;;2.40;;
9852;SDS011;4965;43.238;27.864;2022-10-16T07:23:19;18.17;;;3.15;;
9852;SDS011;4965;43.238;27.864;2022-10-16T07:25:52;6.57;;;2.85;;
9852;SDS011;4965;43.238;27.864;2022-10-16T07:28:20;5.78;;;2.40;;
9852;SDS011;4965;43.238;27.864;2022-10-16T07:30:47;5.35;;;2.40;;
9852;SDS011;4965;43.238;27.864;2022-10-16T07:33:14;4.32;;;2.33;;
9852;SDS011;4965;43.238;27.864;2022-10-16T07:35:48;8.02;;;2.63;;
9852;SDS011;4965;43.238;27.864;2022-10-16T07:38:16;9.55;;;2.17;;
9852;SDS011;4965;43.238;27.864;2022-10-16T07:40:44;6.45;;;2.50;;
9852;SDS011;4965;43.238;27.864;2022-10-16T07:43:11;7.53;;;2.70;;
9852;SDS011;4965;43.238;27.864;2022-10-16T07:45:45;5.35;;;2.95;;
9852;SDS011;4965;43.238;27.864;2022-10-16T07:48:13;11.27;;;3.00;;
9852;SDS011;4965;43.238;27.864;2022-10-16T07:50:41;7.50;;;2.90;;
9852;SDS011;4965;43.238;27.864;2022-10-16T07:53:09;3.33;;;2.40;;
9852;SDS011;4965;43.238;27.864;2022-10-16T07:55:37;5.13;;;2.80;;
9852;SDS011;4965;43.238;27.864;2022-10-16T07:58:05;7.72;;;2.58;;
9852;SDS011;4965;43.238;27.864;2022-10-16T08:00:33;13.07;;;3.05;;
9852;SDS011;4965;43.238;27.864;2022-10-16T08:03:02;6.63;;;2.97;;
9852;SDS011;4965;43.238;27.864;2022-10-16T08:05:31;6.35;;;2.53;;
9852;SDS011;4965;43.238;27.864;2022-10-16T08:08:00;2.80;;;2.40;;
9852;SDS011;4965;43.238;27.864;2022-10-16T08:10:28;3.90;;;2.42;;
9852;SDS011;4965;43.238;27.864;2022-10-16T08:12:56;6.47;;;2.22;;
9852;SDS011;4965;43.238;27.864;2022-10-16T08:15:23;8.05;;;2.42;;
9852;SDS011;4965;43.238;27.864;2022-10-16T08:17:54;5.28;;;2.58;;
9852;SDS011;4965;43.238;27.864;2022-10-16T08:20:22;7.78;;;2.63;;
9852;SDS011;4965;43.238;27.864;2022-10-16T08:22:49;6.35;;;2.75;;
9852;SDS011;4965;43.238;27.864;2022-10-16T08:25:16;6.07;;;2.42;;
9852;SDS011;4965;43.238;27.864;2022-10-16T08:30:31;2.50;;;2.00;;
9852;SDS011;4965;43.238;27.864;2022-10-16T08:32:58;8.50;;;2.70;;
9852;SDS011;4965;43.238;27.864;2022-10-16T08:35:25;5.13;;;2.60;;
9852;SDS011;4965;43.238;27.864;2022-10-16T08:37:52;7.88;;;2.25;;
9852;SDS011;4965;43.238;27.864;2022-10-16T08:40:20;6.28;;;2.67;;
9852;SDS011;4965;43.238;27.864;2022-10-16T08:42:53;5.75;;;2.35;;
9852;SDS011;4965;43.238;27.864;2022-10-16T08:45:34;5.07;;;2.40;;
9852;SDS011;4965;43.238;27.864;2022-10-16T08:48:14;6.57;;;2.30;;
9852;SDS011;4965;43.238;27.864;2022-10-16T08:50:44;7.60;;;2.50;;
9852;SDS011;4965;43.238;27.864;2022-10-16T08:53:15;3.17;;;2.40;;
9852;SDS011;4965;43.238;27.864;2022-10-16T08:55:49;3.55;;;2.10;;
9852;SDS011;4965;43.238;27.864;2022-10-16T08:58:18;9.38;;;2.72;;
9852;SDS011;4965;43.238;27.864;2022-10-16T09:00:49;5.97;;;2.30;;
9852;SDS011;4965;43.238;27.864;2022-10-16T09:03:32;3.60;;;2.75;;
9852;SDS011;4965;43.238;27.864;2022-10-16T09:06:24;3.45;;;2.28;;
9852;SDS011;4965;43.238;27.864;2022-10-16T09:09:04;3.50;;;2.03;;
9852;SDS011;4965;43.238;27.864;2022-10-16T09:11:44;4.75;;;2.10;;
9852;SDS011;4965;43.238;27.864;2022-10-16T09:14:22;3.80;;;2.33;;
9852;SDS011;4965;43.238;27.864;2022-10-16T09:17:07;5.10;;;2.40;;
9852;SDS011;4965;43.238;27.864;2022-10-16T09:19:49;8.52;;;3.13;;
9852;SDS011;4965;43.238;27.864;2022-10-16T09:22:24;5.10;;;2.20;;
9852;SDS011;4965;43.238;27.864;2022-10-16T09:24:54;4.50;;;2.50;;
9852;SDS011;4965;43.238;27.864;2022-10-16T09:27:21;6.32;;;2.95;;
9852;SDS011;4965;43.238;27.864;2022-10-16T09:29:49;4.93;;;2.60;;
9852;SDS011;4965;43.238;27.864;2022-10-16T09:32:18;5.10;;;2.78;;
9852;SDS011;4965;43.238;27.864;2022-10-16T09:34:47;4.00;;;2.40;;
9852;SDS011;4965;43.238;27.864;2022-10-16T09:37:17;7.43;;;2.60;;
9852;SDS011;4965;43.238;27.864;2022-10-16T09:39:47;5.78;;;2.97;;
9852;SDS011;4965;43.238;27.864;2022-10-16T09:42:16;6.57;;;2.50;;
9852;SDS011;4965;43.238;27.864;2022-10-16T09:44:46;6.78;;;2.20;;
9852;SDS011;4965;43.238;27.864;2022-10-16T09:47:17;6.97;;;2.10;;
9852;SDS011;4965;43.238;27.864;2022-10-16T09:49:50;5.80;;;2.13;;
9852;SDS011;4965;43.238;27.864;2022-10-16T09:52:18;7.45;;;2.65;;
9852;SDS011;4965;43.238;27.864;2022-10-16T09:54:49;6.30;;;1.92;;
9852;SDS011;4965;43.238;27.864;2022-10-16T09:57:17;4.05;;;1.98;;
9852;SDS011;4965;43.238;27.864;2022-10-16T09:59:47;9.80;;;2.50;;
9852;SDS011;4965;43.238;27.864;2022-10-16T10:02:18;5.47;;;2.40;;
9852;SDS011;4965;43.238;27.864;2022-10-16T10:04:48;3.67;;;2.20;;
9852;SDS011;4965;43.238;27.864;2022-10-16T10:07:20;6.57;;;2.55;;
9852;SDS011;4965;43.238;27.864;2022-10-16T10:09:53;8.77;;;1.92;;
9852;SDS011;4965;43.238;27.864;2022-10-16T10:12:22;9.63;;;2.85;;
9852;SDS011;4965;43.238;27.864;2022-10-16T10:14:51;9.32;;;2.17;;
9852;SDS011;4965;43.238;27.864;2022-10-16T10:17:21;5.60;;;2.40;;
9852;SDS011;4965;43.238;27.864;2022-10-16T10:19:50;4.93;;;2.20;;
9852;SDS011;4965;43.238;27.864;2022-10-16T10:22:27;4.28;;;2.20;;
9852;SDS011;4965;43.238;27.864;2022-10-16T10:24:57;5.72;;;2.40;;
9852;SDS011;4965;43.238;27.864;2022-10-16T10:27:36;5.78;;;2.05;;
9852;SDS011;4965;43.238;27.864;2022-10-16T10:30:14;7.95;;;2.20;;
9852;SDS011;4965;43.238;27.864;2022-10-16T10:32:48;2.60;;;2.10;;
9852;SDS011;4965;43.238;27.864;2022-10-16T10:35:26;5.20;;;2.22;;
9852;SDS011;4965;43.238;27.864;2022-10-16T10:38:02;6.45;;;2.47;;
9852;SDS011;4965;43.238;27.864;2022-10-16T10:40:42;2.88;;;2.17;;
9852;SDS011;4965;43.238;27.864;2022-10-16T10:43:21;2.63;;;2.03;;
9852;SDS011;4965;43.238;27.864;2022-10-16T10:45:58;4.68;;;2.30;;
9852;SDS011;4965;43.238;27.864;2022-10-16T10:48:41;4.38;;;2.05;;
9852;SDS011;4965;43.238;27.864;2022-10-16T10:51:21;3.58;;;2.00;;
9852;SDS011;4965;43.238;27.864;2022-10-16T10:53:56;4.10;;;1.90;;
9852;SDS011;4965;43.238;27.864;2022-10-16T10:56:42;4.93;;;2.30;;
9852;SDS011;4965;43.238;27.864;2022-10-16T10:59:19;6.75;;;2.33;;
9852;SDS011;4965;43.238;27.864;2022-10-16T11:02:04;3.05;;;2.10;;
9852;SDS011;4965;43.238;27.864;2022-10-16T11:04:52;4.57;;;2.25;;
9852;SDS011;4965;43.238;27.864;2022-10-16T11:07:37;3.33;;;2.08;;
9852;SDS011;4965;43.238;27.864;2022-10-16T11:10:12;8.05;;;2.60;;
9852;SDS011;4965;43.238;27.864;2022-10-16T11:12:44;4.07;;;2.05;;
9852;SDS011;4965;43.238;27.864;2022-10-16T11:15:18;5.18;;;2.05;;
9852;SDS011;4965;43.238;27.864;2022-10-16T11:17:49;6.30;;;2.35;;
9852;SDS011;4965;43.238;27.864;2022-10-16T11:20:24;6.07;;;2.25;;
9852;SDS011;4965;43.238;27.864;2022-10-16T11:22:54;6.82;;;2.10;;
9852;SDS011;4965;43.238;27.864;2022-10-16T11:25:25;10.52;;;2.97;;
9852;SDS011;4965;43.238;27.864;2022-10-16T11:27:55;8.30;;;4.63;;
9852;SDS011;4965;43.238;27.864;2022-10-16T11:30:25;5.55;;;2.60;;
9852;SDS011;4965;43.238;27.864;2022-10-16T11:33:02;4.13;;;2.20;;
9852;SDS011;4965;43.238;27.864;2022-10-16T11:35:41;5.95;;;2.67;;
9852;SDS011;4965;43.238;27.864;2022-10-16T11:38:14;5.05;;;3.15;;
9852;SDS011;4965;43.238;27.864;2022-10-16T11:40:48;3.53;;;2.20;;
9852;SDS011;4965;43.238;27.864;2022-10-16T11:43:20;5.30;;;2.28;;
9852;SDS011;4965;43.238;27.864;2022-10-16T11:45:51;4.88;;;2.53;;
9852;SDS011;4965;43.238;27.864;2022-10-16T11:48:24;3.10;;;2.72;;
9852;SDS011;4965;43.238;27.864;2022-10-16T11:50:58;4.40;;;2.65;;
9852;SDS011;4965;43.238;27.864;2022-10-16T11:53:37;3.42;;;2.60;;
9852;SDS011;4965;43.238;27.864;2022-10-16T11:56:11;4.85;;;2.15;;
9852;SDS011;4965;43.238;27.864;2022-10-16T11:58:50;4.78;;;2.72;;
9852;SDS011;4965;43.238;27.864;2022-10-16T12:01:22;6.50;;;2.47;;
9852;SDS011;4965;43.238;27.864;2022-10-16T12:03:58;4.18;;;2.53;;
9852;SDS011;4965;43.238;27.864;2022-10-16T12:06:42;6.28;;;2.75;;
9852;SDS011;4965;43.238;27.864;2022-10-16T12:09:15;5.53;;;2.90;;
9852;SDS011;4965;43.238;27.864;2022-10-16T12:11:48;8.60;;;2.60;;
9852;SDS011;4965;43.238;27.864;2022-10-16T12:14:20;2.78;;;2.30;;
9852;SDS011;4965;43.238;27.864;2022-10-16T12:17:00;6.15;;;3.05;;
9852;SDS011;4965;43.238;27.864;2022-10-16T12:19:30;7.05;;;2.50;;
9852;SDS011;4965;43.238;27.864;2022-10-16T12:22:00;5.85;;;2.58;;
9852;SDS011;4965;43.238;27.864;2022-10-16T12:24:33;6.45;;;2.38;;
9852;SDS011;4965;43.238;27.864;2022-10-16T12:27:02;4.05;;;2.60;;
9852;SDS011;4965;43.238;27.864;2022-10-16T12:29:35;4.65;;;2.40;;
9852;SDS011;4965;43.238;27.864;2022-10-16T12:32:04;5.63;;;2.30;;
9852;SDS011;4965;43.238;27.864;2022-10-16T12:34:45;9.25;;;2.53;;
9852;SDS011;4965;43.238;27.864;2022-10-16T12:37:19;5.22;;;2.50;;
9852;SDS011;4965;43.238;27.864;2022-10-16T12:39:49;6.65;;;2.90;;
9852;SDS011;4965;43.238;27.864;2022-10-16T12:45:00;5.20;;;2.70;;
9852;SDS011;4965;43.238;27.864;2022-10-16T12:47:47;5.20;;;2.65;;
9852;SDS011;4965;43.238;27.864;2022-10-16T12:53:18;6.40;;;2.40;;
9852;SDS011;4965;43.238;27.864;2022-10-16T12:55:48;4.07;;;2.60;;
9852;SDS011;4965;43.238;27.864;2022-10-16T12:58:28;7.63;;;2.83;;
9852;SDS011;4965;43.238;27.864;2022-10-16T13:01:19;4.50;;;2.53;;
9852;SDS011;4965;43.238;27.864;2022-10-16T13:04:10;7.30;;;3.00;;
9852;SDS011;4965;43.238;27.864;2022-10-16T13:06:51;4.80;;;2.75;;
9852;SDS011;4965;43.238;27.864;2022-10-16T13:09:30;9.45;;;3.17;;
9852;SDS011;4965;43.238;27.864;2022-10-16T13:12:15;7.25;;;3.10;;
9852;SDS011;4965;43.238;27.864;2022-10-16T13:15:16;5.13;;;2.50;;
9852;SDS011;4965;43.238;27.864;2022-10-16T13:17:54;10.07;;;3.28;;
9852;SDS011;4965;43.238;27.864;2022-10-16T13:20:29;5.55;;;2.80;;
9852;SDS011;4965;43.238;27.864;2022-10-16T13:23:02;5.80;;;3.20;;
9852;SDS011;4965;43.238;27.864;2022-10-16T13:25:41;5.90;;;2.80;;
9852;SDS011;4965;43.238;27.864;2022-10-16T13:28:21;17.80;;;3.40;;
9852;SDS011;4965;43.238;27.864;2022-10-16T13:30:53;8.88;;;3.08;;
9852;SDS011;4965;43.238;27.864;2022-10-16T13:33:24;5.10;;;2.75;;
9852;SDS011;4965;43.238;27.864;2022-10-16T13:35:58;5.57;;;3.05;;
9852;SDS011;4965;43.238;27.864;2022-10-16T13:38:26;9.30;;;3.10;;
9852;SDS011;4965;43.238;27.864;2022-10-16T13:40:56;6.20;;;3.22;;
9852;SDS011;4965;43.238;27.864;2022-10-16T13:43:27;5.65;;;3.05;;
9852;SDS011;4965;43.238;27.864;2022-10-16T13:45:59;9.73;;;3.60;;
9852;SDS011;4965;43.238;27.864;2022-10-16T13:48:28;11.85;;;3.50;;
9852;SDS011;4965;43.238;27.864;2022-10-16T13:51:02;5.55;;;2.75;;
9852;SDS011;4965;43.238;27.864;2022-10-16T13:53:32;10.35;;;3.05;;
9852;SDS011;4965;43.238;27.864;2022-10-16T13:56:02;5.38;;;2.92;;
9852;SDS011;4965;43.238;27.864;2022-10-16T13:58:30;3.80;;;2.67;;
9852;SDS011;4965;43.238;27.864;2022-10-16T14:00:58;4.07;;;2.45;;
9852;SDS011;4965;43.238;27.864;2022-10-16T14:03:27;4.82;;;2.53;;
9852;SDS011;4965;43.238;27.864;2022-10-16T14:05:56;5.32;;;2.25;;
9852;SDS011;4965;43.238;27.864;2022-10-16T14:08:25;4.85;;;2.38;;
9852;SDS011;4965;43.238;27.864;2022-10-16T14:10:55;4.68;;;2.17;;
9852;SDS011;4965;43.238;27.864;2022-10-16T14:13:28;10.55;;;2.38;;
9852;SDS011;4965;43.238;27.864;2022-10-16T14:15:58;9.30;;;2.83;;
9852;SDS011;4965;43.238;27.864;2022-10-16T14:18:29;8.90;;;2.53;;
9852;SDS011;4965;43.238;27.864;2022-10-16T14:21:02;2.40;;;2.03;;
9852;SDS011;4965;43.238;27.864;2022-10-16T14:23:30;5.90;;;2.45;;
9852;SDS011;4965;43.238;27.864;2022-10-16T14:26:13;5.65;;;2.05;;
9852;SDS011;4965;43.238;27.864;2022-10-16T14:28:43;2.97;;;2.28;;
9852;SDS011;4965;43.238;27.864;2022-10-16T14:31:29;4.93;;;2.00;;
9852;SDS011;4965;43.238;27.864;2022-10-16T14:33:57;6.88;;;2.38;;
9852;SDS011;4965;43.238;27.864;2022-10-16T14:36:26;5.28;;;2.78;;
9852;SDS011;4965;43.238;27.864;2022-10-16T14:38:58;4.57;;;2.03;;
9852;SDS011;4965;43.238;27.864;2022-10-16T14:41:27;4.50;;;2.20;;
9852;SDS011;4965;43.238;27.864;2022-10-16T14:43:57;6.95;;;2.53;;
9852;SDS011;4965;43.238;27.864;2022-10-16T14:46:28;8.05;;;2.60;;
9852;SDS011;4965;43.238;27.864;2022-10-16T14:49:00;7.93;;;2.70;;
9852;SDS011;4965;43.238;27.864;2022-10-16T14:51:31;5.50;;;2.33;;
9852;SDS011;4965;43.238;27.864;2022-10-16T14:53:58;4.68;;;2.20;;
9852;SDS011;4965;43.238;27.864;2022-10-16T14:56:25;4.72;;;2.42;;
9852;SDS011;4965;43.238;27.864;2022-10-16T14:58:57;9.82;;;2.53;;
9852;SDS011;4965;43.238;27.864;2022-10-16T15:01:24;6.57;;;2.10;;
9852;SDS011;4965;43.238;27.864;2022-10-16T15:03:51;12.43;;;2.83;;
9852;SDS011;4965;43.238;27.864;2022-10-16T15:06:19;8.00;;;3.65;;
9852;SDS011;4965;43.238;27.864;2022-10-16T15:08:47;7.97;;;3.28;;
9852;SDS011;4965;43.238;27.864;2022-10-16T15:11:15;6.13;;;2.50;;
9852;SDS011;4965;43.238;27.864;2022-10-16T15:13:43;8.32;;;2.70;;
9852;SDS011;4965;43.238;27.864;2022-10-16T15:16:12;7.82;;;2.95;;
9852;SDS011;4965;43.238;27.864;2022-10-16T15:18:41;6.38;;;2.30;;
9852;SDS011;4965;43.238;27.864;2022-10-16T15:21:08;12.50;;;2.80;;
9852;SDS011;4965;43.238;27.864;2022-10-16T15:23:48;12.13;;;2.80;;
9852;SDS011;4965;43.238;27.864;2022-10-16T15:26:15;4.03;;;2.55;;
9852;SDS011;4965;43.238;27.864;2022-10-16T15:28:42;7.88;;;2.83;;
9852;SDS011;4965;43.238;27.864;2022-10-16T15:31:09;4.97;;;3.00;;